Time;durP1;ratioP1;P1;durP2;ratioP2;P2;SDS_P1;SDS_P2;PMS_P1;PMS_P2;Temp;Humidity;BMP_temperature;BMP_pressure;BME280_temperature;BME280_humidity;BME280_pressure;Samples;Min_cycle;Max_cycle;Signal;HPM_P1;HPM_P2
2023/04/15 00:01:25;;;;;;;11.98;5.05;;;6.70;99.90;;;;;;5065111;28;20498;-76
2023/04/15 00:03:53;;;;;;;18.38;5.90;;;6.80;99.90;;;;;;5064888;28;20060;-77
2023/04/15 00:06:20;;;;;;;13.32;5.53;;;6.70;99.90;;;;;;5064381;28;20722;-77
2023/04/15 00:08:46;;;;;;;11.35;5.13;;;6.70;99.90;;;;;;5063318;28;20056;-76
2023/04/15 00:11:12;;;;;;;12.68;5.80;;;6.70;99.90;;;;;;5065775;28;20649;-77
2023/04/15 00:13:38;;;;;;;12.98;5.25;;;6.70;99.90;;;;;;5065496;28;20341;-77
2023/04/15 00:16:06;;;;;;;14.57;6.03;;;6.60;99.90;;;;;;5064350;28;20036;-76
2023/04/15 00:18:32;;;;;;;12.48;6.10;;;6.60;99.90;;;;;;5062613;28;20036;-76
2023/04/15 00:20:58;;;;;;;13.48;6.05;;;6.80;99.90;;;;;;5045478;28;20045;-76
2023/04/15 00:23:24;;;;;;;14.85;6.13;;;7.40;99.90;;;;;;5047001;28;20490;-76
2023/04/15 00:25:49;;;;;;;14.32;6.22;;;6.50;99.90;;;;;;5047742;28;20040;-76
2023/04/15 00:28:16;;;;;;;14.38;6.50;;;6.50;99.90;;;;;;5048273;28;20083;-77
2023/04/15 00:30:42;;;;;;;12.98;6.75;;;6.40;99.90;;;;;;5044194;28;20111;-76
2023/04/15 00:33:08;;;;;;;12.15;6.70;;;6.50;99.90;;;;;;5061918;28;20041;-76
2023/04/15 00:35:36;;;;;;;15.05;6.53;;;6.40;99.90;;;;;;5065147;28;20098;-76
2023/04/15 00:38:03;;;;;;;15.85;6.88;;;6.40;99.90;;;;;;5065312;28;20157;-76
2023/04/15 00:40:29;;;;;;;13.82;6.18;;;6.30;99.90;;;;;;5064933;28;20533;-76
2023/04/15 00:42:55;;;;;;;11.95;6.38;;;6.40;99.90;;;;;;5061574;28;20125;-76
2023/04/15 00:45:21;;;;;;;15.20;7.35;;;7.10;99.90;;;;;;5063623;28;20106;-76
2023/04/15 00:47:47;;;;;;;16.50;7.00;;;6.80;99.90;;;;;;5063265;28;20115;-76
2023/04/15 00:50:13;;;;;;;14.32;6.72;;;6.30;99.90;;;;;;5058282;28;20665;-76
2023/04/15 00:52:39;;;;;;;15.20;6.75;;;7.10;99.90;;;;;;5050323;28;20750;-76
2023/04/15 00:55:06;;;;;;;12.35;6.97;;;6.90;99.90;;;;;;5064289;28;20271;-76
2023/04/15 00:57:32;;;;;;;13.07;6.85;;;6.20;99.90;;;;;;5044416;28;20120;-76
2023/04/15 00:59:59;;;;;;;12.25;6.47;;;7.90;99.90;;;;;;5064626;28;20116;-76
2023/04/15 01:02:25;;;;;;;12.88;6.90;;;6.20;99.90;;;;;;5062867;28;20407;-76
2023/04/15 01:04:50;;;;;;;14.40;6.70;;;6.10;99.90;;;;;;5064065;28;20189;-75
2023/04/15 01:07:16;;;;;;;15.77;7.72;;;6.30;99.90;;;;;;5043365;28;20482;-76
2023/04/15 01:09:42;;;;;;;13.50;6.95;;;6.10;99.90;;;;;;5060014;28;20112;-75
2023/04/15 01:12:13;;;;;;;12.43;6.45;;;6.10;99.90;;;;;;5065149;28;20074;-75
2023/04/15 01:14:38;;;;;;;13.68;7.30;;;6.10;99.90;;;;;;5062681;28;20056;-76
2023/04/15 01:17:04;;;;;;;13.50;7.00;;;6.10;99.90;;;;;;5065404;28;20040;-76
2023/04/15 01:19:30;;;;;;;13.55;7.50;;;6.10;99.90;;;;;;5046364;28;20049;-75
2023/04/15 01:21:56;;;;;;;13.63;7.03;;;7.30;99.90;;;;;;5061185;28;20068;-75
2023/04/15 01:24:24;;;;;;;14.02;6.72;;;6.00;99.90;;;;;;5061590;28;20051;-76
2023/04/15 01:26:50;;;;;;;14.75;7.63;;;6.00;99.90;;;;;;5060369;28;20051;-76
2023/04/15 01:29:17;;;;;;;13.43;6.40;;;6.00;99.90;;;;;;5061600;28;20441;-76
2023/04/15 01:31:53;;;;;;;13.38;6.95;;;6.00;99.90;;;;;;5059675;28;20378;-76
2023/04/15 01:34:19;;;;;;;13.52;6.78;;;6.00;99.90;;;;;;5063761;28;20125;-75
2023/04/15 01:36:45;;;;;;;13.43;6.93;;;5.90;99.90;;;;;;5063532;28;20044;-75
2023/04/15 01:39:12;;;;;;;14.02;6.57;;;6.50;99.90;;;;;;5047662;28;20092;-76
2023/04/15 01:41:39;;;;;;;13.45;7.13;;;5.80;99.90;;;;;;5062780;28;20066;-76
2023/04/15 01:44:05;;;;;;;15.63;6.93;;;5.80;99.90;;;;;;5063529;28;20041;-76
2023/04/15 01:46:31;;;;;;;13.90;7.47;;;5.80;99.90;;;;;;5059947;28;20119;-76
2023/04/15 01:48:57;;;;;;;13.75;7.13;;;6.60;99.90;;;;;;5062048;28;20115;-76
2023/04/15 01:51:23;;;;;;;14.95;7.35;;;7.40;99.90;;;;;;5062791;28;20040;-76
2023/04/15 01:53:49;;;;;;;13.50;6.82;;;5.80;99.90;;;;;;5065809;28;20543;-75
2023/04/15 01:56:14;;;;;;;14.25;7.65;;;5.80;99.90;;;;;;5061335;28;20223;-75
2023/04/15 01:58:40;;;;;;;14.90;7.53;;;5.80;99.90;;;;;;5061671;28;20041;-76
2023/04/15 02:01:06;;;;;;;12.70;7.00;;;5.80;99.90;;;;;;5058989;28;20514;-76
2023/04/15 02:03:32;;;;;;;13.57;7.07;;;6.20;99.90;;;;;;5063618;28;20050;-76
2023/04/15 02:05:58;;;;;;;13.93;7.20;;;5.70;99.90;;;;;;5026296;28;20036;-76
2023/04/15 02:08:24;;;;;;;15.48;6.55;;;6.00;99.90;;;;;;5062511;28;20040;-76
2023/04/15 02:10:50;;;;;;;13.05;7.07;;;5.60;99.90;;;;;;5045809;28;20041;-76
2023/04/15 02:13:15;;;;;;;12.35;6.97;;;5.60;99.90;;;;;;5062098;28;20032;-76
2023/04/15 02:15:47;;;;;;;12.52;6.85;;;5.60;99.90;;;;;;5046860;28;20490;-76
2023/04/15 02:18:13;;;;;;;12.80;6.80;;;5.60;99.90;;;;;;5062563;28;20037;-76
2023/04/15 02:20:39;;;;;;;13.65;7.28;;;7.10;99.90;;;;;;5029375;28;20044;-76
2023/04/15 02:23:06;;;;;;;14.15;7.75;;;5.50;99.90;;;;;;5060861;28;20123;-76
2023/04/15 02:25:32;;;;;;;13.25;6.78;;;7.00;99.90;;;;;;5059826;28;20542;-76
2023/04/15 02:27:57;;;;;;;12.95;7.32;;;6.50;99.90;;;;;;5047441;28;20186;-76
2023/04/15 02:30:24;;;;;;;14.98;7.28;;;5.30;99.90;;;;;;5061734;28;20533;-76
2023/04/15 02:32:50;;;;;;;14.10;7.13;;;5.30;99.90;;;;;;5043531;28;20094;-75
2023/04/15 02:35:18;;;;;;;14.82;7.72;;;6.90;99.90;;;;;;5058071;28;20032;-76
2023/04/15 02:37:44;;;;;;;15.35;7.90;;;5.20;99.90;;;;;;5041321;28;20055;-76
2023/04/15 02:40:11;;;;;;;13.93;7.78;;;5.20;99.90;;;;;;5061532;28;20080;-76
2023/04/15 02:42:38;;;;;;;15.45;8.75;;;5.20;99.90;;;;;;5061219;28;20063;-76
2023/04/15 02:45:05;;;;;;;16.45;8.45;;;5.40;99.90;;;;;;5062265;28;20075;-76
2023/04/15 02:47:31;;;;;;;16.98;8.68;;;5.10;99.90;;;;;;5059606;28;20034;-76
2023/04/15 02:49:59;;;;;;;15.90;7.95;;;6.60;99.90;;;;;;5060751;28;20048;-75
2023/04/15 02:52:25;;;;;;;16.98;8.80;;;5.70;99.90;;;;;;5059244;28;20056;-76
2023/04/15 02:54:50;;;;;;;15.57;8.65;;;5.10;99.90;;;;;;5062725;28;20063;-76
2023/04/15 02:57:16;;;;;;;16.02;9.18;;;5.10;99.90;;;;;;5044589;28;20040;-76
2023/04/15 02:59:42;;;;;;;16.60;8.77;;;6.80;99.90;;;;;;5061986;28;20064;-76
2023/04/15 03:02:07;;;;;;;18.98;10.02;;;5.10;99.90;;;;;;5061145;28;20395;-76
2023/04/15 03:04:33;;;;;;;17.65;9.85;;;5.10;99.90;;;;;;5043581;28;20056;-76
2023/04/15 03:07:00;;;;;;;16.13;9.90;;;6.80;99.90;;;;;;5043653;28;20545;-76
2023/04/15 03:09:26;;;;;;;16.27;9.88;;;5.10;99.90;;;;;;5059556;28;20040;-76
2023/04/15 03:11:53;;;;;;;17.05;9.63;;;6.70;99.90;;;;;;5060507;28;20416;-76
2023/04/15 03:14:19;;;;;;;17.98;10.77;;;5.10;99.90;;;;;;5063561;28;20460;-76
2023/04/15 03:16:45;;;;;;;18.42;11.00;;;5.70;99.90;;;;;;5065212;28;20117;-76
2023/04/15 03:19:11;;;;;;;18.83;11.43;;;5.00;99.90;;;;;;5032679;28;20068;-76
2023/04/15 03:21:36;;;;;;;20.13;11.68;;;5.40;99.90;;;;;;5048089;28;20063;-76
2023/04/15 03:24:02;;;;;;;19.08;11.00;;;5.60;99.90;;;;;;5061338;28;20043;-76
2023/04/15 03:26:31;;;;;;;19.90;11.25;;;4.90;99.90;;;;;;5064502;28;20107;-76
2023/04/15 03:28:57;;;;;;;18.95;10.85;;;4.90;99.90;;;;;;5017364;28;20393;-76
2023/04/15 03:31:23;;;;;;;20.50;11.23;;;4.90;99.90;;;;;;5067483;28;20045;-76
2023/04/15 03:33:49;;;;;;;17.85;10.45;;;4.90;99.90;;;;;;5049364;28;20039;-76
2023/04/15 03:36:15;;;;;;;21.42;11.82;;;6.10;99.90;;;;;;5047105;28;20155;-76
2023/04/15 03:38:41;;;;;;;18.67;11.32;;;4.90;99.90;;;;;;5060335;28;20119;-75
2023/04/15 03:41:08;;;;;;;20.00;11.82;;;5.50;99.90;;;;;;5047786;28;20044;-76
2023/04/15 03:43:34;;;;;;;20.52;11.43;;;4.90;99.90;;;;;;5045959;28;20131;-76
2023/04/15 03:46:00;;;;;;;19.77;11.43;;;4.80;99.90;;;;;;5066943;28;20048;-76
2023/04/15 03:48:26;;;;;;;20.58;11.57;;;4.90;99.90;;;;;;5031514;28;20032;-76
2023/04/15 03:50:52;;;;;;;18.73;11.07;;;4.80;99.90;;;;;;5028464;28;20052;-75
2023/04/15 03:53:17;;;;;;;20.80;11.82;;;4.80;99.90;;;;;;5064419;28;20036;-76
2023/04/15 03:55:43;;;;;;;18.58;11.30;;;5.50;99.90;;;;;;5044171;28;20052;-75
2023/04/15 03:58:11;;;;;;;20.83;12.32;;;4.70;99.90;;;;;;5063735;28;20048;-75
2023/04/15 04:00:38;;;;;;;21.27;12.27;;;4.80;99.90;;;;;;5065330;28;20397;-75
2023/04/15 04:03:04;;;;;;;18.45;11.57;;;4.80;99.90;;;;;;5067123;28;20209;-76
2023/04/15 04:05:30;;;;;;;17.80;11.40;;;4.70;99.90;;;;;;5063439;28;20068;-76
2023/04/15 04:07:55;;;;;;;18.10;11.10;;;4.70;99.90;;;;;;5049422;28;20037;-75
2023/04/15 04:10:21;;;;;;;18.73;11.77;;;5.80;99.90;;;;;;5064433;28;20040;-76
2023/04/15 04:12:47;;;;;;;20.48;12.00;;;5.00;99.90;;;;;;5046795;28;20475;-76
2023/04/15 04:15:13;;;;;;;19.92;12.68;;;4.60;99.90;;;;;;5063061;28;20581;-76
2023/04/15 04:17:38;;;;;;;18.25;11.48;;;4.80;99.90;;;;;;5048908;28;20047;-76
2023/04/15 04:20:05;;;;;;;20.08;12.93;;;4.60;99.90;;;;;;5047045;28;20149;-76
2023/04/15 04:22:31;;;;;;;17.75;10.50;;;4.70;99.90;;;;;;5064323;28;20917;-75
2023/04/15 04:24:58;;;;;;;21.23;12.60;;;5.20;99.90;;;;;;5064045;28;20037;-75
2023/04/15 04:27:25;;;;;;;20.08;12.45;;;4.70;99.90;;;;;;5064793;28;20133;-75
2023/04/15 04:29:50;;;;;;;20.33;12.57;;;4.90;99.90;;;;;;5047128;28;20128;-76
2023/04/15 04:32:16;;;;;;;21.52;12.60;;;5.20;99.90;;;;;;5063849;28;20167;-76
2023/04/15 04:34:42;;;;;;;21.77;12.73;;;5.60;99.90;;;;;;5063208;28;20414;-76
2023/04/15 04:37:07;;;;;;;20.77;12.52;;;4.60;99.90;;;;;;5063438;28;20043;-76
2023/04/15 04:39:33;;;;;;;19.35;12.18;;;4.70;99.90;;;;;;5062236;28;20067;-76
2023/04/15 04:42:00;;;;;;;20.45;13.18;;;4.60;99.90;;;;;;5060243;28;20083;-76
2023/04/15 04:44:25;;;;;;;18.20;11.18;;;4.60;99.90;;;;;;5063035;28;20041;-76
2023/04/15 04:46:51;;;;;;;18.30;11.57;;;4.60;99.90;;;;;;5058346;28;20071;-76
2023/04/15 04:49:17;;;;;;;21.58;12.90;;;4.60;99.90;;;;;;5066075;28;20036;-76
2023/04/15 04:51:43;;;;;;;20.83;12.35;;;4.60;99.90;;;;;;5062902;28;20036;-76
2023/04/15 04:54:08;;;;;;;19.52;11.77;;;5.40;99.90;;;;;;5029717;28;20036;-76
2023/04/15 04:56:34;;;;;;;19.40;11.52;;;5.60;99.90;;;;;;5063629;28;20559;-76
2023/04/15 04:59:00;;;;;;;18.58;11.52;;;5.20;99.90;;;;;;5044795;28;20067;-76
2023/04/15 05:01:26;;;;;;;19.52;11.73;;;6.00;99.90;;;;;;5061065;28;20123;-76
2023/04/15 05:03:52;;;;;;;20.27;11.95;;;4.80;99.90;;;;;;5063741;28;20052;-76
2023/04/15 05:06:18;;;;;;;19.23;11.68;;;4.70;99.90;;;;;;5064482;28;20033;-76
2023/04/15 05:08:43;;;;;;;18.45;11.60;;;5.80;99.90;;;;;;5060761;28;20052;-76
2023/04/15 05:11:09;;;;;;;19.67;12.05;;;5.70;99.90;;;;;;5061818;28;20529;-76
2023/04/15 05:13:37;;;;;;;20.20;11.80;;;5.50;99.90;;;;;;5061816;28;20094;-76
2023/04/15 05:16:05;;;;;;;20.52;11.77;;;4.70;99.90;;;;;;5059160;28;20107;-76
2023/04/15 05:18:30;;;;;;;18.55;10.93;;;4.70;99.90;;;;;;5061822;28;20097;-76
2023/04/15 05:20:57;;;;;;;17.13;10.40;;;4.70;99.90;;;;;;5060384;28;20048;-76
2023/04/15 05:23:22;;;;;;;19.05;11.32;;;6.10;99.90;;;;;;5062608;28;20649;-76
2023/04/15 05:25:48;;;;;;;18.98;11.88;;;5.20;99.90;;;;;;5047159;28;20132;-76
2023/04/15 05:28:14;;;;;;;18.92;10.65;;;4.80;99.90;;;;;;5062890;28;20394;-76
2023/04/15 05:30:40;;;;;;;19.55;11.93;;;5.10;99.90;;;;;;5062141;28;20072;-76
2023/04/15 05:33:06;;;;;;;18.35;11.13;;;6.50;99.90;;;;;;5061373;28;20071;-76
2023/04/15 05:35:32;;;;;;;19.52;11.27;;;5.60;99.90;;;;;;5046659;28;20076;-76
2023/04/15 05:37:57;;;;;;;19.45;11.45;;;5.00;99.90;;;;;;5060066;28;20036;-76
2023/04/15 05:40:23;;;;;;;19.60;12.00;;;5.10;99.90;;;;;;5063588;28;20251;-76
2023/04/15 05:42:49;;;;;;;18.60;11.18;;;5.20;99.90;;;;;;5061526;28;20123;-76
2023/04/15 05:45:15;;;;;;;19.13;11.55;;;5.20;99.90;;;;;;5062069;28;20144;-77
2023/04/15 05:47:40;;;;;;;18.75;11.82;;;5.30;99.90;;;;;;5061598;28;20109;-76
2023/04/15 05:50:07;;;;;;;17.25;10.57;;;5.40;99.90;;;;;;5061380;28;20053;-76
2023/04/15 05:52:32;;;;;;;18.67;10.90;;;5.50;99.90;;;;;;5059987;28;20071;-76
2023/04/15 05:54:58;;;;;;;17.65;10.60;;;5.60;99.90;;;;;;5058572;28;20502;-76
2023/04/15 05:57:24;;;;;;;19.58;10.25;;;5.70;99.90;;;;;;5062283;28;20067;-76
2023/04/15 05:59:54;;;;;;;17.98;11.07;;;7.00;99.90;;;;;;5065145;28;20167;-76
2023/04/15 06:02:19;;;;;;;18.02;10.85;;;5.90;99.90;;;;;;5062296;28;20074;-76
2023/04/15 06:04:46;;;;;;;21.88;10.88;;;7.40;99.90;;;;;;5062470;28;20072;-76
2023/04/15 06:07:11;;;;;;;18.50;11.48;;;6.00;99.90;;;;;;5060428;28;20052;-76
2023/04/15 06:09:37;;;;;;;18.42;10.57;;;6.10;99.90;;;;;;5062816;28;20253;-77
2023/04/15 06:12:03;;;;;;;18.75;10.75;;;6.20;99.90;;;;;;5060958;28;20272;-76
2023/04/15 06:14:31;;;;;;;19.90;10.98;;;6.30;99.90;;;;;;5059032;28;20208;-76
2023/04/15 06:16:57;;;;;;;21.80;11.32;;;6.30;99.90;;;;;;5043673;28;20047;-76
2023/04/15 06:19:23;;;;;;;17.55;10.13;;;6.40;99.90;;;;;;5040870;28;20414;-76
2023/04/15 06:21:49;;;;;;;18.88;10.50;;;7.70;99.90;;;;;;5059765;28;20051;-76
2023/04/15 06:24:15;;;;;;;19.02;10.27;;;6.50;99.90;;;;;;5032412;28;20051;-76
2023/04/15 06:26:40;;;;;;;17.40;9.65;;;6.70;99.90;;;;;;5067859;28;20066;-76
2023/04/15 06:29:06;;;;;;;16.25;10.07;;;6.70;99.90;;;;;;5064602;28;20049;-77
2023/04/15 06:31:32;;;;;;;17.58;10.15;;;6.80;99.90;;;;;;5061170;28;20049;-76
2023/04/15 06:33:57;;;;;;;17.17;10.48;;;6.90;99.90;;;;;;5048070;28;20124;-76
2023/04/15 06:36:23;;;;;;;18.35;10.18;;;7.00;99.90;;;;;;5061705;28;20044;-77
2023/04/15 06:38:49;;;;;;;16.63;9.95;;;7.00;99.90;;;;;;5067996;28;20127;-76
2023/04/15 06:41:15;;;;;;;17.48;9.27;;;7.10;99.90;;;;;;5065531;28;20525;-77
2023/04/15 06:43:41;;;;;;;16.65;9.80;;;7.20;99.90;;;;;;5036057;28;20075;-77
2023/04/15 06:46:06;;;;;;;16.92;9.55;;;7.30;99.90;;;;;;5051588;28;20059;-76
2023/04/15 06:48:32;;;;;;;17.42;10.07;;;7.40;99.90;;;;;;5050642;28;20040;-76
2023/04/15 06:50:58;;;;;;;17.85;9.07;;;7.50;99.90;;;;;;5051407;28;20259;-76
2023/04/15 06:53:26;;;;;;;15.60;9.02;;;7.50;99.90;;;;;;5055572;28;20032;-76
2023/04/15 06:55:52;;;;;;;15.85;8.68;;;7.60;99.90;;;;;;5044183;28;20078;-76
2023/04/15 06:58:18;;;;;;;16.25;8.55;;;7.70;99.90;;;;;;5042711;28;20471;-76
2023/04/15 07:00:44;;;;;;;15.40;8.55;;;7.70;99.90;;;;;;5060398;28;20426;-76
2023/04/15 07:03:11;;;;;;;16.10;9.30;;;7.80;99.90;;;;;;5061760;28;20033;-76
2023/04/15 07:05:37;;;;;;;15.48;8.98;;;7.80;99.90;;;;;;5061167;28;20133;-76
2023/04/15 07:08:04;;;;;;;15.82;7.78;;;7.90;99.90;;;;;;5043865;28;20504;-76
2023/04/15 07:10:29;;;;;;;15.32;8.10;;;8.00;99.90;;;;;;5057428;28;20410;-76
2023/04/15 07:12:55;;;;;;;15.32;8.15;;;8.10;99.90;;;;;;5059641;28;20044;-76
2023/04/15 07:15:22;;;;;;;14.23;7.78;;;8.20;99.90;;;;;;5058978;28;20049;-76
2023/04/15 07:17:48;;;;;;;14.63;8.05;;;8.20;99.90;;;;;;5059761;28;20028;-76
2023/04/15 07:20:13;;;;;;;14.35;7.70;;;8.30;99.90;;;;;;5060969;28;20497;-76
2023/04/15 07:22:39;;;;;;;14.48;7.82;;;8.40;99.90;;;;;;5043500;28;20105;-76
2023/04/15 07:25:06;;;;;;;15.40;7.82;;;8.40;99.90;;;;;;5059916;28;20048;-76
2023/04/15 07:27:32;;;;;;;15.20;7.97;;;8.60;99.90;;;;;;5043025;28;20041;-76
2023/04/15 07:29:58;;;;;;;14.95;7.32;;;8.60;99.90;;;;;;5045304;28;20093;-76
2023/04/15 07:32:23;;;;;;;15.10;6.30;;;8.70;99.90;;;;;;5043630;28;20174;-76
2023/04/15 07:34:49;;;;;;;15.13;7.50;;;8.60;99.90;;;;;;5061291;28;20124;-76
2023/04/15 07:37:15;;;;;;;13.40;6.32;;;8.70;99.90;;;;;;5039765;28;20554;-76
2023/04/15 07:39:41;;;;;;;13.95;7.10;;;8.60;99.90;;;;;;5057641;28;20044;-75
2023/04/15 07:42:07;;;;;;;14.50;6.97;;;8.70;99.90;;;;;;5041427;28;20086;-76
2023/04/15 07:44:33;;;;;;;20.88;7.32;;;8.70;99.90;;;;;;5062847;28;20040;-76
2023/04/15 07:46:59;;;;;;;12.70;6.20;;;8.70;99.90;;;;;;5061465;28;20457;-76
2023/04/15 07:49:25;;;;;;;12.88;6.32;;;8.70;99.90;;;;;;5060263;28;20520;-76
2023/04/15 07:51:51;;;;;;;11.27;5.65;;;8.70;99.90;;;;;;5062403;28;20040;-76
2023/04/15 07:54:16;;;;;;;11.38;5.65;;;8.80;99.90;;;;;;5060038;28;20059;-76
2023/04/15 07:56:42;;;;;;;13.30;6.22;;;8.70;99.90;;;;;;5041652;28;20037;-76
2023/04/15 07:59:08;;;;;;;13.50;6.20;;;8.80;99.90;;;;;;5062189;28;20040;-76
2023/04/15 08:01:35;;;;;;;13.30;6.20;;;8.80;99.90;;;;;;5065221;28;20055;-76
2023/04/15 08:04:01;;;;;;;13.25;6.80;;;8.80;99.90;;;;;;5059721;28;20770;-76
2023/04/15 08:06:27;;;;;;;14.63;6.60;;;8.80;99.90;;;;;;5061263;28;20056;-77
2023/04/15 08:08:54;;;;;;;12.75;6.60;;;8.70;99.90;;;;;;5049012;28;20056;-77
2023/04/15 08:11:20;;;;;;;12.43;5.90;;;8.70;99.90;;;;;;5043780;28;20048;-77
2023/04/15 08:13:46;;;;;;;11.93;6.28;;;8.80;99.90;;;;;;5051155;28;20056;-76
2023/04/15 08:16:23;;;;;;;15.80;6.28;;;8.80;99.90;;;;;;5050878;28;20041;-76
2023/04/15 08:18:50;;;;;;;11.90;5.53;;;8.80;99.90;;;;;;5053787;28;20440;-76
2023/04/15 08:21:18;;;;;;;10.93;4.75;;;8.80;99.90;;;;;;5060586;28;20441;-76
2023/04/15 08:23:45;;;;;;;10.20;4.55;;;8.80;99.90;;;;;;5070642;28;20090;-76
2023/04/15 08:26:11;;;;;;;9.48;4.15;;;8.80;99.90;;;;;;5071777;28;20044;-76
2023/04/15 08:28:39;;;;;;;10.57;4.78;;;8.80;99.90;;;;;;5070828;28;20043;-76
2023/04/15 08:31:05;;;;;;;14.85;4.97;;;8.70;99.90;;;;;;5069281;28;20048;-76
2023/04/15 08:33:31;;;;;;;13.95;5.32;;;8.70;99.90;;;;;;5070375;28;20137;-76
2023/04/15 08:35:57;;;;;;;11.85;4.35;;;8.70;99.90;;;;;;5069948;28;20052;-76
2023/04/15 08:38:23;;;;;;;10.30;4.32;;;8.70;99.90;;;;;;5053741;28;20040;-76
2023/04/15 08:40:48;;;;;;;10.07;3.88;;;8.60;99.90;;;;;;5062346;28;20074;-76
2023/04/15 08:43:18;;;;;;;11.30;4.70;;;8.60;99.90;;;;;;5050410;28;20045;-76
2023/04/15 08:45:45;;;;;;;9.57;3.85;;;8.70;99.90;;;;;;5050103;28;20057;-76
2023/04/15 08:48:15;;;;;;;9.25;3.53;;;8.60;99.90;;;;;;5050186;28;20532;-77
2023/04/15 08:50:41;;;;;;;8.95;3.25;;;8.70;99.90;;;;;;5053374;28;20090;-76
2023/04/15 08:53:08;;;;;;;7.40;2.75;;;8.70;99.90;;;;;;5058115;28;20037;-76
2023/04/15 08:55:38;;;;;;;6.65;2.33;;;8.70;99.90;;;;;;5050086;28;20075;-76
2023/04/15 08:58:04;;;;;;;8.07;2.65;;;8.80;99.90;;;;;;5061435;28;20056;-76
2023/04/15 09:00:32;;;;;;;8.05;2.25;;;9.00;99.90;;;;;;5052585;28;20372;-76
2023/04/15 09:02:58;;;;;;;8.13;2.40;;;9.20;99.90;;;;;;5057672;28;20045;-77
2023/04/15 09:05:24;;;;;;;7.82;2.30;;;9.30;99.90;;;;;;5049854;28;20553;-77
2023/04/15 09:07:50;;;;;;;6.65;2.05;;;9.40;99.90;;;;;;5051063;28;20080;-77
2023/04/15 09:10:16;;;;;;;6.53;2.30;;;9.50;99.90;;;;;;5049604;28;20049;-76
2023/04/15 09:12:42;;;;;;;6.57;2.08;;;9.50;99.90;;;;;;5061327;28;20405;-76
2023/04/15 09:15:11;;;;;;;6.63;2.35;;;9.60;99.90;;;;;;5069737;28;20048;-77
2023/04/15 09:17:42;;;;;;;7.55;2.53;;;9.60;99.90;;;;;;5069743;28;20044;-77
2023/04/15 09:20:13;;;;;;;6.22;2.33;;;9.60;99.90;;;;;;5069529;28;20076;-76
2023/04/15 09:22:40;;;;;;;6.32;2.13;;;9.60;99.90;;;;;;5068432;28;20448;-77
2023/04/15 09:25:21;;;;;;;7.30;2.47;;;9.60;99.90;;;;;;5069397;28;20044;-77
2023/04/15 09:27:50;;;;;;;6.53;2.40;;;9.50;99.90;;;;;;5052689;28;20182;-76
2023/04/15 09:30:16;;;;;;;7.72;2.47;;;9.50;99.90;;;;;;5068363;28;20045;-77
2023/04/15 09:32:50;;;;;;;7.68;2.60;;;9.50;99.90;;;;;;5069229;28;20048;-76
2023/04/15 09:35:16;;;;;;;7.13;2.30;;;9.60;99.90;;;;;;5069260;28;20121;-76
2023/04/15 09:37:41;;;;;;;7.38;2.20;;;9.50;99.90;;;;;;5069009;28;20040;-77
2023/04/15 09:40:08;;;;;;;7.18;2.50;;;9.60;99.90;;;;;;5067621;28;20052;-77
2023/04/15 09:42:35;;;;;;;7.50;2.15;;;9.50;99.90;;;;;;5069170;28;20545;-76
2023/04/15 09:45:11;;;;;;;5.45;2.10;;;9.60;99.90;;;;;;5070546;28;20045;-77
2023/04/15 09:47:36;;;;;;;8.80;3.08;;;9.60;99.90;;;;;;5068894;28;20040;-76
2023/04/15 09:50:02;;;;;;;9.07;2.80;;;9.60;99.90;;;;;;5067869;28;20051;-77
2023/04/15 09:52:29;;;;;;;7.30;2.50;;;9.60;99.90;;;;;;5070042;28;20063;-77
2023/04/15 09:54:57;;;;;;;8.90;2.97;;;8.10;99.90;;;;;;5067262;28;20129;-76
2023/04/15 09:57:23;;;;;;;10.38;4.43;;;9.70;99.90;;;;;;5056785;28;20059;-77
2023/04/15 09:59:49;;;;;;;10.82;5.28;;;9.70;99.90;;;;;;5070237;28;20037;-77
2023/04/15 10:02:18;;;;;;;8.70;3.00;;;9.70;99.90;;;;;;5060611;28;20063;-76
2023/04/15 10:04:47;;;;;;;6.72;2.22;;;9.70;99.90;;;;;;5054722;28;20044;-77
2023/04/15 10:07:14;;;;;;;6.40;2.17;;;9.60;99.90;;;;;;5032375;28;20060;-76
2023/04/15 10:09:40;;;;;;;7.50;2.20;;;9.70;99.90;;;;;;5050435;28;20033;-77
2023/04/15 10:12:06;;;;;;;9.35;2.42;;;8.30;99.90;;;;;;5060644;28;20052;-77
2023/04/15 10:14:34;;;;;;;5.82;2.17;;;9.60;99.90;;;;;;5052197;28;20516;-76
2023/04/15 10:17:04;;;;;;;7.68;2.20;;;9.70;99.90;;;;;;5069775;28;20111;-76
2023/04/15 10:19:35;;;;;;;6.65;2.13;;;9.70;99.90;;;;;;5069861;28;20046;-77
2023/04/15 10:22:02;;;;;;;8.43;2.38;;;9.70;99.90;;;;;;5068277;28;20036;-77
2023/04/15 10:24:30;;;;;;;7.80;2.33;;;9.60;99.90;;;;;;5069293;28;20083;-76
2023/04/15 10:26:57;;;;;;;8.43;2.70;;;9.60;99.90;;;;;;5068073;28;20072;-76
2023/04/15 10:29:27;;;;;;;7.93;2.40;;;9.60;99.90;;;;;;5068575;28;20597;-77
2023/04/15 10:31:57;;;;;;;11.02;2.50;;;9.50;99.90;;;;;;5067081;28;20062;-77
2023/04/15 10:34:24;;;;;;;10.20;2.88;;;9.50;99.90;;;;;;5067884;28;20444;-77
2023/04/15 10:36:50;;;;;;;11.60;2.95;;;9.50;99.90;;;;;;5033004;28;20388;-76
2023/04/15 10:39:38;;;;;;;9.30;2.47;;;9.50;99.90;;;;;;5048157;28;20052;-76
2023/04/15 10:42:18;;;;;;;7.07;2.47;;;9.50;99.90;;;;;;5055564;28;20059;-77
2023/04/15 10:44:48;;;;;;;11.57;2.72;;;9.50;99.90;;;;;;5050635;28;20052;-77
2023/04/15 10:47:19;;;;;;;9.10;2.22;;;9.50;99.90;;;;;;5068314;28;20078;-77
2023/04/15 10:49:46;;;;;;;8.25;2.33;;;9.50;99.90;;;;;;5068346;28;20048;-76
2023/04/15 10:52:15;;;;;;;10.15;2.60;;;9.50;99.90;;;;;;5051202;28;20083;-77
2023/04/15 10:54:40;;;;;;;7.85;2.60;;;9.50;99.90;;;;;;5068584;28;20083;-77
2023/04/15 10:57:07;;;;;;;10.18;2.97;;;9.40;99.90;;;;;;5065083;28;20080;-77
2023/04/15 10:59:57;;;;;;;10.18;3.15;;;9.40;99.90;;;;;;5068494;28;20052;-76
2023/04/15 11:02:47;;;;;;;10.63;2.78;;;9.30;99.90;;;;;;5058577;28;20462;-76
2023/04/15 11:05:17;;;;;;;8.27;2.70;;;9.30;99.90;;;;;;5063742;28;20048;-76
2023/04/15 11:07:47;;;;;;;9.10;2.78;;;9.30;99.90;;;;;;5069527;28;20063;-77
2023/04/15 11:10:12;;;;;;;9.68;2.75;;;9.30;99.90;;;;;;5072104;28;20076;-77
2023/04/15 11:12:39;;;;;;;9.25;2.67;;;9.40;99.90;;;;;;5068741;28;20514;-77
2023/04/15 11:15:39;;;;;;;8.23;2.33;;;9.50;99.90;;;;;;5068418;28;20463;-78
2023/04/15 11:18:15;;;;;;;8.60;2.45;;;9.70;99.90;;;;;;5067739;28;20553;-77
2023/04/15 11:20:49;;;;;;;9.60;2.83;;;9.70;99.90;;;;;;5067686;28;20041;-78
2023/04/15 11:23:19;;;;;;;9.10;2.70;;;9.70;99.90;;;;;;5062946;28;20375;-78
2023/04/15 11:25:45;;;;;;;12.63;2.75;;;9.70;99.90;;;;;;5059889;28;20048;-78
2023/04/15 11:28:11;;;;;;;9.30;2.30;;;9.70;99.90;;;;;;5043798;28;20432;-77
2023/04/15 11:30:38;;;;;;;11.75;2.42;;;9.70;99.90;;;;;;5076761;28;20072;-77
2023/04/15 11:33:10;;;;;;;10.07;2.72;;;9.70;99.90;;;;;;5059097;28;20040;-77
2023/04/15 11:35:36;;;;;;;8.85;2.30;;;9.80;99.90;;;;;;5045777;28;20091;-76
2023/04/15 11:38:13;;;;;;;12.32;2.63;;;9.70;99.90;;;;;;5065842;28;20047;-77
2023/04/15 11:40:40;;;;;;;10.15;2.60;;;9.80;99.90;;;;;;5069051;28;20407;-78
2023/04/15 11:43:11;;;;;;;11.07;2.58;;;9.80;99.90;;;;;;5067567;28;20052;-77
2023/04/15 11:45:46;;;;;;;10.23;2.63;;;9.90;99.90;;;;;;5048794;28;20048;-77
2023/04/15 11:48:13;;;;;;;10.63;2.50;;;9.90;99.90;;;;;;5083454;28;20041;-78
2023/04/15 11:50:40;;;;;;;12.00;2.60;;;9.90;99.90;;;;;;5059008;28;20041;-77
2023/04/15 11:53:07;;;;;;;9.15;2.60;;;9.90;99.90;;;;;;5043304;28;20043;-77
2023/04/15 11:55:47;;;;;;;10.90;2.40;;;10.00;99.90;;;;;;5065336;28;20072;-77
2023/04/15 11:58:18;;;;;;;8.27;2.05;;;10.00;99.90;;;;;;5072304;28;20055;-77
2023/04/15 12:00:55;;;;;;;10.20;2.70;;;9.90;99.90;;;;;;5069382;28;20095;-76
2023/04/15 12:03:38;;;;;;;9.27;2.65;;;10.00;99.90;;;;;;5067171;28;20044;-76
2023/04/15 12:06:11;;;;;;;10.60;2.63;;;10.00;99.90;;;;;;5068029;28;20084;-77
2023/04/15 12:09:05;;;;;;;10.73;2.72;;;10.00;99.90;;;;;;5065587;28;20048;-77
2023/04/15 12:11:38;;;;;;;11.80;2.90;;;10.00;99.90;;;;;;5065639;28;20051;-77
2023/04/15 12:14:29;;;;;;;8.73;2.20;;;9.90;99.90;;;;;;5068090;28;20041;-77
2023/04/15 12:17:03;;;;;;;8.25;2.20;;;9.80;99.90;;;;;;5066406;28;20037;-77
2023/04/15 12:19:39;;;;;;;11.98;2.20;;;9.80;99.90;;;;;;5070269;28;20044;-76
2023/04/15 12:22:05;;;;;;;11.82;2.60;;;9.70;99.90;;;;;;5047930;28;20040;-77
2023/04/15 12:24:33;;;;;;;13.27;2.78;;;9.60;99.90;;;;;;5066889;28;20052;-77
2023/04/15 12:27:17;;;;;;;11.38;2.85;;;9.60;99.90;;;;;;5066256;28;20079;-77
2023/04/15 12:29:43;;;;;;;10.95;2.72;;;9.60;99.90;;;;;;5061153;28;20048;-77
2023/04/15 12:32:16;;;;;;;9.70;2.75;;;9.60;99.90;;;;;;5063743;28;20490;-78
2023/04/15 12:34:50;;;;;;;12.93;2.65;;;9.60;99.90;;;;;;5065867;28;20133;-78
2023/04/15 12:37:17;;;;;;;13.18;2.80;;;9.50;99.90;;;;;;5063983;28;20730;-77
2023/04/15 12:39:47;;;;;;;12.77;2.75;;;9.40;99.90;;;;;;5065662;28;20044;-77
2023/04/15 12:42:14;;;;;;;10.20;2.90;;;9.40;99.90;;;;;;5063792;28;20040;-78
2023/04/15 12:44:40;;;;;;;12.93;2.80;;;9.30;99.90;;;;;;5063405;28;20040;-78
2023/04/15 12:47:07;;;;;;;10.85;2.35;;;9.30;99.90;;;;;;5046452;28;20089;-77